createdAt,value
2022-08-11T00:01:25.988Z,1.02
2022-08-11T00:03:57.106Z,0.93
2022-08-11T00:06:37.059Z,1.02
2022-08-11T00:09:05.606Z,1.20
2022-08-11T00:11:39.852Z,1.10
2022-08-11T00:14:37.386Z,1.20
2022-08-11T00:17:13.031Z,1.27
2022-08-11T00:20:12.110Z,0.98
2022-08-11T00:22:29.874Z,1.10
2022-08-11T00:25:01.604Z,1.10
2022-08-11T00:27:35.985Z,1.00
2022-08-11T00:30:04.387Z,1.08
2022-08-11T00:32:31.116Z,1.02
2022-08-11T00:35:53.848Z,1.05
2022-08-11T00:37:49.328Z,1.20
2022-08-11T00:40:20.711Z,1.00
2022-08-11T00:43:19.308Z,1.10
2022-08-11T00:46:13.993Z,1.10
2022-08-11T00:49:00.405Z,1.30
2022-08-11T00:52:04.707Z,1.17
2022-08-11T00:54:45.527Z,1.10
2022-08-11T00:57:38.508Z,1.10
2022-08-11T01:00:17.862Z,1.30
2022-08-11T01:03:09.404Z,0.85
2022-08-11T01:06:01.621Z,1.13
2022-08-11T01:09:07.175Z,1.23
2022-08-11T01:12:09.495Z,1.05
2022-08-11T01:15:07.127Z,0.90
2022-08-11T01:18:09.974Z,0.98
2022-08-11T01:20:59.760Z,1.10
2022-08-11T01:23:32.378Z,1.40
2022-08-11T01:26:29.426Z,1.05
2022-08-11T01:29:01.923Z,0.90
2022-08-11T01:31:43.722Z,1.15
2022-08-11T01:34:28.936Z,1.00
2022-08-11T01:37:23.448Z,1.00
2022-08-11T01:40:25.523Z,0.90
2022-08-11T01:43:38.395Z,1.13
2022-08-11T01:46:45.998Z,1.20
2022-08-11T01:49:58.614Z,1.05
2022-08-11T01:52:19.881Z,1.00
2022-08-11T01:55:26.691Z,1.08
2022-08-11T01:58:43.764Z,1.10
2022-08-11T02:01:37.371Z,1.05
2022-08-11T02:04:10.112Z,1.00
2022-08-11T02:06:55.819Z,1.00
2022-08-11T02:09:49.362Z,1.10
2022-08-11T02:12:37.613Z,1.00
2022-08-11T02:15:23.217Z,0.90
2022-08-11T02:18:11.466Z,1.05
2022-08-11T02:21:08.980Z,0.90
2022-08-11T02:24:05.070Z,0.90
2022-08-11T02:26:40.978Z,1.15
2022-08-11T02:29:17.778Z,0.90
2022-08-11T02:32:28.678Z,1.10
2022-08-11T02:35:19.555Z,0.95
2022-08-11T02:38:01.549Z,0.80
2022-08-11T02:40:40.524Z,1.10
2022-08-11T02:43:28.683Z,0.90
2022-08-11T02:46:24.331Z,1.00
2022-08-11T02:49:33.826Z,1.15
2022-08-11T02:52:06.996Z,1.00
2022-08-11T02:55:09.789Z,0.90
2022-08-11T02:58:03.317Z,1.20
2022-08-11T03:00:30.916Z,1.00
2022-08-11T03:03:21.101Z,0.95
2022-08-11T03:06:12.809Z,1.13
2022-08-11T03:08:51.878Z,1.13
2022-08-11T03:12:14.555Z,1.00
2022-08-11T03:15:07.866Z,1.00
2022-08-11T03:18:03.087Z,1.08
2022-08-11T03:20:51.631Z,1.00
2022-08-11T03:23:26.219Z,1.27
2022-08-11T03:26:19.529Z,0.90
2022-08-11T03:28:54.557Z,0.90
2022-08-11T03:31:29.760Z,1.10
2022-08-11T03:34:06.586Z,1.10
2022-08-11T03:37:44.236Z,1.00
2022-08-11T03:40:40.551Z,0.90
2022-08-11T03:43:19.206Z,1.00
2022-08-11T03:46:16.932Z,0.90
2022-08-11T03:49:02.341Z,1.10
2022-08-11T03:51:52.481Z,1.20
2022-08-11T03:54:50.926Z,1.15
2022-08-11T03:57:45.264Z,1.00
2022-08-11T04:00:29.819Z,0.90
2022-08-11T04:03:18.922Z,1.08
2022-08-11T04:06:22.826Z,1.10
2022-08-11T04:09:23.474Z,0.90
2022-08-11T04:12:09.031Z,0.90
2022-08-11T04:15:15.867Z,1.20
2022-08-11T04:17:48.408Z,0.90
2022-08-11T04:20:18.349Z,1.00
2022-08-11T04:24:36.542Z,1.00
2022-08-11T04:26:34.494Z,0.90
2022-08-11T04:29:10.330Z,1.33
2022-08-11T04:31:50.633Z,1.10
2022-08-11T04:34:38.013Z,1.10
2022-08-11T04:37:34.995Z,1.00
2022-08-11T04:40:35.593Z,1.20
2022-08-11T04:43:23.580Z,1.20
2022-08-11T04:46:22.887Z,1.27
2022-08-11T04:49:42.356Z,1.65
2022-08-11T04:53:13.243Z,1.20
2022-08-11T04:56:16.338Z,1.38
2022-08-11T04:59:33.387Z,1.30
2022-08-11T05:02:37.982Z,1.40
2022-08-11T05:05:32.775Z,1.30
2022-08-11T05:08:28.078Z,1.42
2022-08-11T05:10:58.277Z,1.45
2022-08-11T05:13:57.299Z,1.35
2022-08-11T05:16:51.184Z,1.77
2022-08-11T05:19:40.007Z,1.38
2022-08-11T05:22:28.027Z,1.30
2022-08-11T05:26:42.986Z,1.45
2022-08-11T05:28:29.966Z,1.25
2022-08-11T05:31:29.009Z,1.30
2022-08-11T05:34:17.993Z,1.20
2022-08-11T05:36:46.112Z,1.23
2022-08-11T05:39:42.915Z,1.98
2022-08-11T05:42:39.448Z,1.33
2022-08-11T05:45:58.187Z,1.30
2022-08-11T05:48:38.165Z,1.20
2022-08-11T05:51:30.589Z,1.65
2022-08-11T05:54:28.292Z,1.33
2022-08-11T05:56:59.956Z,1.23
2022-08-11T05:59:28.459Z,1.25
2022-08-11T06:02:04.268Z,1.30
2022-08-11T06:04:31.172Z,1.25
2022-08-11T06:06:59.751Z,1.25
2022-08-11T06:09:35.976Z,1.25
2022-08-11T06:12:08.571Z,1.60
2022-08-11T06:14:36.560Z,1.83
2022-08-11T06:17:03.809Z,1.52
2022-08-11T06:19:38.821Z,1.48
2022-08-11T06:22:06.612Z,1.52
2022-08-11T06:24:34.449Z,1.45
2022-08-11T06:27:12.275Z,1.90
2022-08-11T06:29:55.148Z,1.33
2022-08-11T06:32:33.426Z,1.50
2022-08-11T06:35:32.206Z,1.70
2022-08-11T06:38:16.180Z,1.20
2022-08-11T06:41:18.368Z,1.50
2022-08-11T06:43:58.958Z,1.70
2022-08-11T06:46:31.283Z,1.52
2022-08-11T06:48:58.101Z,1.60
2022-08-11T06:51:25.254Z,1.42
2022-08-11T06:54:04.166Z,1.60
2022-08-11T06:57:06.625Z,1.75
2022-08-11T06:59:58.014Z,1.50
2022-08-11T07:02:33.803Z,1.85
2022-08-11T07:05:27.174Z,1.50
2022-08-11T07:08:35.737Z,1.70
2022-08-11T07:11:46.650Z,2.30
2022-08-11T07:14:36.336Z,1.60
2022-08-11T07:17:05.041Z,1.60
2022-08-11T07:19:50.558Z,1.60
2022-08-11T07:22:35.911Z,1.80
2022-08-11T07:25:32.905Z,1.70
2022-08-11T07:28:53.809Z,1.73
2022-08-11T07:32:02.217Z,1.70
2022-08-11T07:34:34.572Z,3.80
2022-08-11T07:37:04.536Z,2.38
2022-08-11T07:39:34.483Z,2.05
2022-08-11T07:42:09.187Z,1.75
2022-08-11T07:44:58.659Z,2.30
2022-08-11T07:47:45.170Z,1.65
2022-08-11T07:50:31.107Z,2.08
2022-08-11T07:52:58.534Z,1.75
2022-08-11T07:55:26.334Z,1.73
2022-08-11T07:58:31.616Z,1.70
2022-08-11T08:01:25.175Z,1.70
2022-08-11T08:04:10.723Z,1.98
2022-08-11T08:06:56.599Z,2.30
2022-08-11T08:09:42.757Z,1.80
2022-08-11T08:12:28.245Z,1.83
2022-08-11T08:15:14.288Z,1.75
2022-08-11T08:18:09.072Z,1.88
2022-08-11T08:20:48.109Z,1.80
2022-08-11T08:23:14.955Z,1.60
2022-08-11T08:25:43.226Z,1.60
2022-08-11T08:28:11.692Z,1.70
2022-08-11T08:30:47.449Z,1.73
2022-08-11T08:33:18.910Z,1.58
2022-08-11T08:35:54.541Z,1.95
2022-08-11T08:38:23.188Z,1.45
2022-08-11T08:40:51.178Z,1.77
2022-08-11T08:43:18.474Z,1.70
2022-08-11T08:45:45.244Z,1.55
2022-08-11T08:48:15.093Z,1.85
2022-08-11T08:51:08.981Z,1.65
2022-08-11T08:53:36.535Z,1.50
2022-08-11T08:56:03.606Z,1.83
2022-08-11T08:58:30.604Z,1.60
2022-08-11T09:00:58.103Z,1.60
2022-08-11T09:04:06.843Z,1.40
2022-08-11T09:06:16.713Z,1.52
2022-08-11T09:08:44.754Z,1.70
2022-08-11T09:11:30.647Z,1.67
2022-08-11T09:14:05.622Z,1.75
2022-08-11T09:16:35.309Z,1.70
2022-08-11T09:19:02.143Z,1.42
2022-08-11T09:21:48.154Z,1.95
2022-08-11T09:24:34.145Z,1.50
2022-08-11T09:27:05.907Z,1.70
2022-08-11T09:29:32.765Z,1.75
2022-08-11T09:31:59.578Z,1.75
2022-08-11T09:34:26.827Z,1.67
2022-08-11T09:37:54.028Z,1.70
2022-08-11T09:40:33.526Z,1.42
2022-08-11T09:43:25.101Z,1.80
2022-08-11T09:45:53.254Z,1.50
2022-08-11T09:48:20.903Z,1.60
2022-08-11T09:50:59.069Z,1.63
2022-08-11T09:53:36.845Z,1.52
2022-08-11T09:56:34.354Z,1.50
2022-08-11T09:59:01.964Z,1.60
2022-08-11T10:01:31.219Z,1.60
2022-08-11T10:04:06.672Z,1.50
2022-08-11T10:06:54.061Z,1.40
2022-08-11T10:09:22.586Z,1.40
2022-08-11T10:11:55.430Z,1.42
2022-08-11T10:14:44.879Z,1.60
2022-08-11T10:17:11.793Z,2.03
2022-08-11T10:19:38.606Z,1.80
2022-08-11T10:22:27.003Z,1.15
2022-08-11T10:25:12.997Z,1.63
2022-08-11T10:28:28.712Z,1.50
2022-08-11T10:30:48.093Z,1.50
2022-08-11T10:33:36.886Z,1.35
2022-08-11T10:36:16.896Z,1.60
2022-08-11T10:38:45.913Z,1.40
2022-08-11T10:41:32.216Z,1.35
2022-08-11T10:44:02.148Z,1.58
2022-08-11T10:46:48.798Z,1.38
2022-08-11T10:49:15.594Z,1.70
2022-08-11T10:52:00.805Z,1.40
2022-08-11T10:54:46.127Z,1.63
2022-08-11T10:57:32.765Z,1.77
2022-08-11T10:59:59.553Z,1.40
2022-08-11T11:02:27.412Z,1.60
2022-08-11T11:04:58.807Z,1.30
2022-08-11T11:07:41.477Z,1.70
2022-08-11T11:10:11.490Z,1.60
2022-08-11T11:13:11.873Z,1.60
2022-08-11T11:15:57.038Z,1.90
2022-08-11T11:18:33.548Z,1.67
2022-08-11T11:21:14.503Z,1.40
2022-08-11T11:23:53.253Z,1.42
2022-08-11T11:26:56.214Z,1.58
2022-08-11T11:29:25.206Z,1.90
2022-08-11T11:32:06.873Z,1.70
2022-08-11T11:35:18.037Z,2.17
2022-08-11T11:38:03.772Z,1.80
2022-08-11T11:40:31.692Z,1.80
2022-08-11T11:42:59.286Z,2.05
2022-08-11T11:45:26.117Z,1.90
2022-08-11T11:47:54.647Z,1.85
2022-08-11T11:50:31.405Z,1.85
2022-08-11T11:52:59.881Z,1.98
2022-08-11T11:55:27.356Z,2.08
2022-08-11T11:58:15.895Z,1.60
2022-08-11T12:01:03.782Z,1.90
2022-08-11T12:03:30.586Z,1.70
2022-08-11T12:05:57.808Z,1.75
2022-08-11T12:08:27.571Z,1.67
2022-08-11T12:11:14.452Z,1.60
2022-08-11T12:13:50.248Z,1.90
2022-08-11T12:16:33.158Z,1.70
2022-08-11T12:19:02.192Z,1.90
2022-08-11T12:21:29.354Z,1.60
2022-08-11T12:24:16.027Z,1.88
2022-08-11T12:27:14.929Z,1.50
2022-08-11T12:29:35.465Z,1.42
2022-08-11T12:32:02.237Z,1.55
2022-08-11T12:34:31.500Z,1.50
2022-08-11T12:36:59.552Z,1.50
2022-08-11T12:40:16.752Z,1.70
2022-08-11T12:42:55.612Z,1.75
2022-08-11T12:45:29.835Z,1.73
2022-08-11T12:49:01.272Z,1.70
2022-08-11T12:51:30.143Z,1.52
2022-08-11T12:54:42.139Z,1.52
2022-08-11T12:57:36.860Z,1.60
2022-08-11T13:00:31.560Z,1.55
2022-08-11T13:03:16.741Z,1.67
2022-08-11T13:05:44.496Z,1.90
2022-08-11T13:08:11.668Z,1.60
2022-08-11T13:10:58.681Z,1.70
2022-08-11T13:13:26.877Z,1.60
2022-08-11T13:16:12.256Z,1.80
2022-08-11T13:18:39.507Z,1.50
2022-08-11T13:21:06.350Z,2.65
2022-08-11T13:23:35.710Z,1.50
2022-08-11T13:26:02.588Z,1.58
2022-08-11T13:28:29.340Z,1.40
2022-08-11T13:31:14.453Z,1.58
2022-08-11T13:33:43.450Z,1.52
2022-08-11T13:36:10.663Z,1.40
2022-08-11T13:38:37.605Z,1.50
2022-08-11T13:41:24.430Z,1.63
2022-08-11T13:43:52.545Z,1.70
2022-08-11T13:46:20.410Z,1.30
2022-08-11T13:48:47.164Z,1.60
2022-08-11T13:51:35.330Z,1.63
2022-08-11T13:54:06.395Z,1.45
2022-08-11T13:56:34.048Z,1.42
2022-08-11T13:59:02.585Z,1.77
2022-08-11T14:02:20.808Z,1.50
2022-08-11T14:04:30.388Z,1.50
2022-08-11T14:07:03.725Z,1.98
2022-08-11T14:09:32.657Z,1.90
2022-08-11T14:12:23.634Z,1.70
2022-08-11T14:15:05.857Z,1.88
2022-08-11T14:17:44.174Z,1.65
2022-08-11T14:20:39.012Z,1.67
2022-08-11T14:23:04.530Z,1.83
2022-08-11T14:26:00.114Z,1.80
2022-08-11T14:28:33.940Z,1.77
2022-08-11T14:31:03.450Z,2.17
2022-08-11T14:34:00.409Z,1.92
2022-08-11T14:36:18.333Z,1.55
2022-08-11T14:38:45.163Z,1.70
2022-08-11T14:41:30.100Z,1.95
2022-08-11T14:44:15.282Z,1.80
2022-08-11T14:47:01.295Z,2.00
2022-08-11T14:49:28.707Z,1.73
2022-08-11T14:51:57.142Z,1.60
2022-08-11T14:54:43.726Z,1.90
2022-08-11T14:57:10.574Z,1.90
2022-08-11T14:59:38.093Z,2.20
2022-08-11T15:02:24.333Z,2.20
2022-08-11T15:04:51.750Z,2.47
2022-08-11T15:07:20.115Z,1.80
2022-08-11T15:10:12.297Z,2.00
2022-08-11T15:12:38.912Z,1.90
2022-08-11T15:15:25.667Z,2.20
2022-08-11T15:17:53.315Z,1.70
2022-08-11T15:20:39.651Z,1.77
2022-08-11T15:23:25.087Z,1.55
2022-08-11T15:26:51.463Z,2.10
2022-08-11T15:29:39.637Z,1.75
2022-08-11T15:32:19.744Z,1.98
2022-08-11T15:35:08.562Z,2.13
2022-08-11T15:37:36.473Z,1.95
2022-08-11T15:40:37.374Z,2.00
2022-08-11T15:43:57.046Z,2.22
2022-08-11T15:46:32.208Z,1.98
2022-08-11T15:49:08.225Z,1.75
2022-08-11T15:51:37.672Z,1.88
2022-08-11T15:54:16.520Z,2.03
2022-08-11T15:56:45.517Z,2.08
2022-08-11T15:59:42.553Z,1.63
2022-08-11T16:02:31.212Z,1.60
2022-08-11T16:04:58.852Z,1.85
2022-08-11T16:07:30.980Z,2.00
2022-08-11T16:10:18.755Z,2.00
2022-08-11T16:13:20.717Z,2.05
2022-08-11T16:16:12.220Z,1.95
2022-08-11T16:18:52.500Z,1.88
2022-08-11T16:21:33.632Z,2.10
2022-08-11T16:24:04.764Z,1.90
2022-08-11T16:27:10.968Z,2.20
2022-08-11T16:29:18.403Z,2.35
2022-08-11T16:32:05.135Z,2.05
2022-08-11T16:34:50.701Z,2.10
2022-08-11T16:37:36.169Z,1.92
2022-08-11T16:40:04.277Z,1.90
2022-08-11T16:43:08.743Z,2.10
2022-08-11T16:45:55.319Z,2.40
2022-08-11T16:48:36.324Z,2.05
2022-08-11T16:51:08.037Z,1.83
2022-08-11T16:54:00.190Z,2.15
2022-08-11T16:56:43.833Z,2.10
2022-08-11T16:59:16.567Z,2.13
2022-08-11T17:02:08.588Z,2.25
2022-08-11T17:04:59.847Z,2.25
2022-08-11T17:07:45.388Z,2.30
2022-08-11T17:10:57.610Z,2.20
2022-08-11T17:13:37.328Z,2.08
2022-08-11T17:16:10.084Z,2.63
2022-08-11T17:18:46.730Z,2.13
2022-08-11T17:21:19.706Z,2.30
2022-08-11T17:23:59.349Z,2.20
2022-08-11T17:26:52.421Z,2.50
2022-08-11T17:29:24.685Z,2.10
2022-08-11T17:32:10.201Z,2.63
2022-08-11T17:34:55.543Z,2.50
2022-08-11T17:37:22.328Z,2.50
2022-08-11T17:39:49.132Z,2.40
2022-08-11T17:42:36.045Z,2.40
2022-08-11T17:45:21.900Z,2.17
2022-08-11T17:48:07.544Z,2.22
2022-08-11T17:50:34.319Z,2.30
2022-08-11T17:53:19.720Z,2.10
2022-08-11T17:56:05.118Z,2.05
2022-08-11T17:58:50.544Z,2.50
2022-08-11T18:01:17.301Z,2.28
2022-08-11T18:03:57.321Z,2.40
2022-08-11T18:06:34.287Z,2.20
2022-08-11T18:09:22.425Z,2.35
2022-08-11T18:12:12.248Z,2.40
2022-08-11T18:14:59.236Z,2.60
2022-08-11T18:17:44.933Z,2.50
2022-08-11T18:20:30.147Z,2.20
2022-08-11T18:23:15.336Z,1.95
2022-08-11T18:26:07.273Z,1.90
2022-08-11T18:29:03.063Z,2.17
2022-08-11T18:31:49.389Z,1.90
2022-08-11T18:34:35.668Z,1.98
2022-08-11T18:37:29.074Z,2.45
2022-08-11T18:40:20.675Z,2.30
2022-08-11T18:43:07.181Z,2.40
2022-08-11T18:46:07.007Z,2.53
2022-08-11T18:48:56.464Z,2.60
2022-08-11T18:51:42.670Z,3.25
2022-08-11T18:54:29.068Z,3.22
2022-08-11T18:57:16.440Z,4.10
2022-08-11T19:00:02.489Z,4.00
2022-08-11T19:02:48.934Z,3.85
2022-08-11T19:06:32.210Z,3.80
2022-08-11T19:08:42.812Z,3.88
2022-08-11T19:11:28.859Z,3.72
2022-08-11T19:14:14.409Z,3.50
2022-08-11T19:16:59.778Z,3.67
2022-08-11T19:19:47.511Z,3.53
2022-08-11T19:22:33.519Z,4.00
2022-08-11T19:25:25.581Z,3.67
2022-08-11T19:28:11.874Z,3.28
2022-08-11T19:30:56.965Z,3.53
2022-08-11T19:34:00.029Z,3.28
2022-08-11T19:36:47.815Z,3.55
2022-08-11T19:39:37.642Z,3.70
2022-08-11T19:42:27.775Z,3.30
2022-08-11T19:45:13.760Z,3.45
2022-08-11T19:48:28.025Z,3.85
2022-08-11T19:51:05.282Z,3.28
2022-08-11T19:53:50.839Z,3.97
2022-08-11T19:56:36.317Z,3.50
2022-08-11T19:59:21.568Z,3.60
2022-08-11T20:02:13.549Z,3.70
2022-08-11T20:05:00.875Z,4.10
2022-08-11T20:07:46.873Z,4.53
2022-08-11T20:10:32.746Z,4.20
2022-08-11T20:13:21.617Z,4.47
2022-08-11T20:16:07.258Z,4.13
2022-08-11T20:18:53.057Z,3.90
2022-08-11T20:21:38.422Z,3.60
2022-08-11T20:24:24.248Z,3.83
2022-08-11T20:27:18.747Z,4.15
2022-08-11T20:30:10.144Z,4.03
2022-08-11T20:32:55.403Z,4.18
2022-08-11T20:35:40.634Z,3.70
2022-08-11T20:38:26.393Z,4.15
2022-08-11T20:41:12.595Z,3.83
2022-08-11T20:44:05.499Z,3.28
2022-08-11T20:46:57.011Z,3.53
2022-08-11T20:49:50.433Z,3.42
2022-08-11T20:52:40.429Z,3.20
2022-08-11T20:55:52.040Z,3.55
2022-08-11T20:59:01.041Z,3.92
2022-08-11T21:04:54.015Z,3.50
2022-08-11T21:07:41.371Z,3.50
2022-08-11T21:10:27.264Z,3.15
2022-08-11T21:13:25.211Z,3.33
2022-08-11T21:16:25.714Z,2.97
2022-08-11T21:20:00.719Z,3.42
2022-08-11T21:22:27.956Z,3.33
2022-08-11T21:25:26.999Z,3.00
2022-08-11T21:28:12.273Z,3.08
2022-08-11T21:30:58.057Z,2.92
2022-08-11T21:33:45.010Z,3.10
2022-08-11T21:36:30.350Z,3.40
2022-08-11T21:39:15.815Z,3.20
2022-08-11T21:42:01.000Z,3.47
2022-08-11T21:44:46.276Z,2.88
2022-08-11T21:47:43.205Z,2.80
2022-08-11T21:50:28.894Z,2.83
2022-08-11T21:53:15.063Z,2.65
2022-08-11T21:56:00.230Z,3.05
2022-08-11T21:58:45.739Z,3.38
2022-08-11T22:01:32.300Z,2.88
2022-08-11T22:04:20.009Z,2.63
2022-08-11T22:07:05.558Z,3.00
2022-08-11T22:09:50.588Z,3.17
2022-08-11T22:12:37.137Z,2.85
2022-08-11T22:15:26.176Z,2.65
2022-08-11T22:18:11.287Z,3.00
2022-08-11T22:20:57.017Z,2.65
2022-08-11T22:23:42.118Z,2.63
2022-08-11T22:26:27.263Z,2.80
2022-08-11T22:29:12.458Z,2.75
2022-08-11T22:31:57.649Z,2.78
2022-08-11T22:34:52.580Z,3.00
2022-08-11T22:37:39.318Z,2.33
2022-08-11T22:40:26.065Z,2.67
2022-08-11T22:43:11.174Z,2.30
2022-08-11T22:45:56.650Z,2.42
2022-08-11T22:48:41.756Z,2.30
2022-08-11T22:51:26.901Z,2.90
2022-08-11T22:54:12.015Z,2.67
2022-08-11T22:56:57.099Z,2.90
2022-08-11T22:59:42.263Z,2.50
2022-08-11T23:02:27.406Z,2.83
2022-08-11T23:05:12.684Z,2.60
2022-08-11T23:07:58.313Z,2.70
2022-08-11T23:10:43.455Z,2.55
2022-08-11T23:13:28.522Z,2.58
2022-08-11T23:16:14.178Z,2.30
2022-08-11T23:18:59.932Z,2.50
2022-08-11T23:21:46.028Z,2.50
2022-08-11T23:24:31.359Z,2.50
2022-08-11T23:27:16.487Z,2.70
2022-08-11T23:30:01.604Z,2.78
2022-08-11T23:32:47.240Z,2.50
2022-08-11T23:35:37.791Z,2.33
2022-08-11T23:38:25.444Z,2.50
2022-08-11T23:41:10.609Z,2.33
2022-08-11T23:43:55.730Z,2.40
2022-08-11T23:46:41.390Z,2.10
2022-08-11T23:49:26.617Z,2.00
2022-08-11T23:52:11.740Z,2.38
2022-08-11T23:54:56.876Z,2.33
2022-08-11T23:57:49.290Z,2.17
